sensor_id;sensor_type;location;lat;lon;timestamp;P1;durP1;ratioP1;P2;durP2;ratioP2
16890;SDS011;8562;52.246;20.966;2023-04-16T00:02:02;4.50;;;3.93;;
16890;SDS011;8562;52.246;20.966;2023-04-16T00:04:27;3.10;;;2.90;;
16890;SDS011;8562;52.246;20.966;2023-04-16T00:06:53;4.00;;;3.27;;
16890;SDS011;8562;52.246;20.966;2023-04-16T00:09:18;4.20;;;3.43;;
16890;SDS011;8562;52.246;20.966;2023-04-16T00:11:44;4.43;;;3.27;;
16890;SDS011;8562;52.246;20.966;2023-04-16T00:14:09;3.77;;;2.90;;
16890;SDS011;8562;52.246;20.966;2023-04-16T00:16:35;4.30;;;3.20;;
16890;SDS011;8562;52.246;20.966;2023-04-16T00:19:00;4.40;;;3.87;;
16890;SDS011;8562;52.246;20.966;2023-04-16T00:21:25;4.13;;;3.73;;
16890;SDS011;8562;52.246;20.966;2023-04-16T00:23:50;4.10;;;3.33;;
16890;SDS011;8562;52.246;20.966;2023-04-16T00:26:16;5.70;;;3.83;;
16890;SDS011;8562;52.246;20.966;2023-04-16T00:28:43;3.53;;;3.23;;
16890;SDS011;8562;52.246;20.966;2023-04-16T00:31:09;4.53;;;2.97;;
16890;SDS011;8562;52.246;20.966;2023-04-16T00:33:34;5.10;;;3.43;;
16890;SDS011;8562;52.246;20.966;2023-04-16T00:35:59;5.10;;;4.10;;
16890;SDS011;8562;52.246;20.966;2023-04-16T00:38:25;6.57;;;4.03;;
16890;SDS011;8562;52.246;20.966;2023-04-16T00:40:54;3.73;;;3.33;;
16890;SDS011;8562;52.246;20.966;2023-04-16T00:43:22;4.30;;;3.50;;
16890;SDS011;8562;52.246;20.966;2023-04-16T00:45:49;3.63;;;2.37;;
16890;SDS011;8562;52.246;20.966;2023-04-16T00:48:15;3.57;;;3.10;;
16890;SDS011;8562;52.246;20.966;2023-04-16T00:50:40;3.57;;;3.07;;
16890;SDS011;8562;52.246;20.966;2023-04-16T00:53:06;3.23;;;2.90;;
16890;SDS011;8562;52.246;20.966;2023-04-16T00:55:31;5.17;;;3.43;;
16890;SDS011;8562;52.246;20.966;2023-04-16T00:57:57;3.27;;;2.50;;
16890;SDS011;8562;52.246;20.966;2023-04-16T01:00:22;6.10;;;3.70;;
16890;SDS011;8562;52.246;20.966;2023-04-16T01:02:47;5.23;;;3.17;;
16890;SDS011;8562;52.246;20.966;2023-04-16T01:05:13;4.47;;;2.90;;
16890;SDS011;8562;52.246;20.966;2023-04-16T01:07:38;3.20;;;2.90;;
16890;SDS011;8562;52.246;20.966;2023-04-16T01:10:04;3.93;;;2.70;;
16890;SDS011;8562;52.246;20.966;2023-04-16T01:12:29;3.90;;;2.60;;
16890;SDS011;8562;52.246;20.966;2023-04-16T01:14:55;3.33;;;2.43;;
16890;SDS011;8562;52.246;20.966;2023-04-16T01:17:20;3.03;;;2.80;;
16890;SDS011;8562;52.246;20.966;2023-04-16T01:19:45;3.00;;;2.70;;
16890;SDS011;8562;52.246;20.966;2023-04-16T01:22:11;4.03;;;2.37;;
16890;SDS011;8562;52.246;20.966;2023-04-16T01:24:37;5.40;;;3.10;;
16890;SDS011;8562;52.246;20.966;2023-04-16T01:27:03;6.90;;;3.20;;
16890;SDS011;8562;52.246;20.966;2023-04-16T01:29:28;5.27;;;3.23;;
16890;SDS011;8562;52.246;20.966;2023-04-16T01:31:56;2.93;;;2.63;;
16890;SDS011;8562;52.246;20.966;2023-04-16T01:34:25;3.77;;;2.97;;
16890;SDS011;8562;52.246;20.966;2023-04-16T01:36:50;4.60;;;3.27;;
16890;SDS011;8562;52.246;20.966;2023-04-16T01:39:16;4.73;;;3.10;;
16890;SDS011;8562;52.246;20.966;2023-04-16T01:41:43;4.07;;;3.10;;
16890;SDS011;8562;52.246;20.966;2023-04-16T01:44:08;3.53;;;3.23;;
16890;SDS011;8562;52.246;20.966;2023-04-16T01:46:34;3.93;;;3.43;;
16890;SDS011;8562;52.246;20.966;2023-04-16T01:49:00;4.37;;;3.50;;
16890;SDS011;8562;52.246;20.966;2023-04-16T01:51:25;4.33;;;3.87;;
16890;SDS011;8562;52.246;20.966;2023-04-16T01:53:52;4.30;;;3.53;;
16890;SDS011;8562;52.246;20.966;2023-04-16T01:56:17;5.30;;;3.87;;
16890;SDS011;8562;52.246;20.966;2023-04-16T01:58:42;5.27;;;4.10;;
16890;SDS011;8562;52.246;20.966;2023-04-16T02:01:11;4.60;;;3.53;;
16890;SDS011;8562;52.246;20.966;2023-04-16T02:03:38;6.87;;;4.23;;
16890;SDS011;8562;52.246;20.966;2023-04-16T02:06:03;4.37;;;3.80;;
16890;SDS011;8562;52.246;20.966;2023-04-16T02:08:29;3.97;;;3.53;;
16890;SDS011;8562;52.246;20.966;2023-04-16T02:10:55;3.33;;;3.03;;
16890;SDS011;8562;52.246;20.966;2023-04-16T02:13:21;4.87;;;3.77;;
16890;SDS011;8562;52.246;20.966;2023-04-16T02:15:48;4.67;;;3.53;;
16890;SDS011;8562;52.246;20.966;2023-04-16T02:18:17;5.43;;;3.50;;
16890;SDS011;8562;52.246;20.966;2023-04-16T02:20:44;5.07;;;3.80;;
16890;SDS011;8562;52.246;20.966;2023-04-16T02:23:10;4.83;;;3.63;;
16890;SDS011;8562;52.246;20.966;2023-04-16T02:25:42;6.23;;;3.60;;
16890;SDS011;8562;52.246;20.966;2023-04-16T02:28:10;5.20;;;4.30;;
16890;SDS011;8562;52.246;20.966;2023-04-16T02:30:39;5.03;;;4.10;;
16890;SDS011;8562;52.246;20.966;2023-04-16T02:33:06;6.73;;;3.97;;
16890;SDS011;8562;52.246;20.966;2023-04-16T02:35:33;5.47;;;3.97;;
16890;SDS011;8562;52.246;20.966;2023-04-16T02:37:59;4.00;;;3.40;;
16890;SDS011;8562;52.246;20.966;2023-04-16T02:40:24;3.83;;;3.43;;
16890;SDS011;8562;52.246;20.966;2023-04-16T02:42:50;4.07;;;3.27;;
16890;SDS011;8562;52.246;20.966;2023-04-16T02:45:16;3.90;;;3.10;;
16890;SDS011;8562;52.246;20.966;2023-04-16T02:47:41;4.43;;;3.60;;
16890;SDS011;8562;52.246;20.966;2023-04-16T02:50:07;4.23;;;3.40;;
16890;SDS011;8562;52.246;20.966;2023-04-16T02:52:32;6.43;;;4.07;;
16890;SDS011;8562;52.246;20.966;2023-04-16T02:54:58;4.17;;;3.20;;
16890;SDS011;8562;52.246;20.966;2023-04-16T02:57:23;5.83;;;3.73;;
16890;SDS011;8562;52.246;20.966;2023-04-16T02:59:48;5.37;;;4.03;;
16890;SDS011;8562;52.246;20.966;2023-04-16T03:02:13;5.67;;;4.03;;
16890;SDS011;8562;52.246;20.966;2023-04-16T03:04:40;5.10;;;3.83;;
16890;SDS011;8562;52.246;20.966;2023-04-16T03:07:05;4.73;;;4.13;;
16890;SDS011;8562;52.246;20.966;2023-04-16T03:09:30;7.00;;;4.57;;
16890;SDS011;8562;52.246;20.966;2023-04-16T03:11:57;6.63;;;4.70;;
16890;SDS011;8562;52.246;20.966;2023-04-16T03:14:22;5.60;;;4.10;;
16890;SDS011;8562;52.246;20.966;2023-04-16T03:16:47;9.83;;;5.00;;
16890;SDS011;8562;52.246;20.966;2023-04-16T03:19:13;5.73;;;3.57;;
16890;SDS011;8562;52.246;20.966;2023-04-16T03:21:38;12.03;;;3.73;;
16890;SDS011;8562;52.246;20.966;2023-04-16T03:24:03;4.13;;;3.73;;
16890;SDS011;8562;52.246;20.966;2023-04-16T03:26:29;5.87;;;4.40;;
16890;SDS011;8562;52.246;20.966;2023-04-16T03:28:54;5.17;;;3.70;;
16890;SDS011;8562;52.246;20.966;2023-04-16T03:31:19;4.97;;;3.10;;
16890;SDS011;8562;52.246;20.966;2023-04-16T03:33:47;6.77;;;4.23;;
16890;SDS011;8562;52.246;20.966;2023-04-16T03:36:13;5.10;;;4.00;;
16890;SDS011;8562;52.246;20.966;2023-04-16T03:38:38;6.97;;;3.90;;
16890;SDS011;8562;52.246;20.966;2023-04-16T03:41:03;4.37;;;3.83;;
16890;SDS011;8562;52.246;20.966;2023-04-16T03:43:31;6.53;;;3.87;;
16890;SDS011;8562;52.246;20.966;2023-04-16T03:45:56;5.97;;;4.13;;
16890;SDS011;8562;52.246;20.966;2023-04-16T03:48:22;5.20;;;3.73;;
16890;SDS011;8562;52.246;20.966;2023-04-16T03:50:48;5.07;;;4.23;;
16890;SDS011;8562;52.246;20.966;2023-04-16T03:53:15;5.60;;;3.80;;
16890;SDS011;8562;52.246;20.966;2023-04-16T03:55:41;5.60;;;3.90;;
16890;SDS011;8562;52.246;20.966;2023-04-16T03:58:07;5.87;;;4.17;;
16890;SDS011;8562;52.246;20.966;2023-04-16T04:00:32;5.43;;;4.37;;
16890;SDS011;8562;52.246;20.966;2023-04-16T04:03:05;5.47;;;3.83;;
16890;SDS011;8562;52.246;20.966;2023-04-16T04:05:34;6.13;;;4.17;;
16890;SDS011;8562;52.246;20.966;2023-04-16T04:07:59;5.80;;;4.57;;
16890;SDS011;8562;52.246;20.966;2023-04-16T04:10:26;6.60;;;4.40;;
16890;SDS011;8562;52.246;20.966;2023-04-16T04:12:52;5.53;;;4.50;;
16890;SDS011;8562;52.246;20.966;2023-04-16T04:15:17;5.77;;;4.20;;
16890;SDS011;8562;52.246;20.966;2023-04-16T04:17:42;7.90;;;4.57;;
16890;SDS011;8562;52.246;20.966;2023-04-16T04:20:08;6.37;;;3.93;;
16890;SDS011;8562;52.246;20.966;2023-04-16T04:22:35;6.13;;;4.70;;
16890;SDS011;8562;52.246;20.966;2023-04-16T04:25:00;6.03;;;5.07;;
16890;SDS011;8562;52.246;20.966;2023-04-16T04:27:28;4.23;;;3.60;;
16890;SDS011;8562;52.246;20.966;2023-04-16T04:29:53;7.20;;;3.90;;
16890;SDS011;8562;52.246;20.966;2023-04-16T04:32:20;7.37;;;4.90;;
16890;SDS011;8562;52.246;20.966;2023-04-16T04:34:46;6.53;;;4.00;;
16890;SDS011;8562;52.246;20.966;2023-04-16T04:37:11;6.87;;;4.53;;
16890;SDS011;8562;52.246;20.966;2023-04-16T04:39:37;6.47;;;4.70;;
16890;SDS011;8562;52.246;20.966;2023-04-16T04:42:02;6.13;;;4.70;;
16890;SDS011;8562;52.246;20.966;2023-04-16T04:44:28;5.67;;;4.10;;
16890;SDS011;8562;52.246;20.966;2023-04-16T04:46:53;7.87;;;4.70;;
16890;SDS011;8562;52.246;20.966;2023-04-16T04:49:18;7.10;;;5.13;;
16890;SDS011;8562;52.246;20.966;2023-04-16T04:51:45;8.13;;;5.20;;
16890;SDS011;8562;52.246;20.966;2023-04-16T04:54:10;8.33;;;5.40;;
16890;SDS011;8562;52.246;20.966;2023-04-16T04:56:36;7.53;;;5.37;;
16890;SDS011;8562;52.246;20.966;2023-04-16T04:59:01;6.13;;;4.20;;
16890;SDS011;8562;52.246;20.966;2023-04-16T05:01:26;6.73;;;4.50;;
16890;SDS011;8562;52.246;20.966;2023-04-16T05:03:51;6.00;;;4.37;;
16890;SDS011;8562;52.246;20.966;2023-04-16T05:06:17;10.03;;;5.40;;
16890;SDS011;8562;52.246;20.966;2023-04-16T05:08:42;10.10;;;6.13;;
16890;SDS011;8562;52.246;20.966;2023-04-16T05:11:07;8.30;;;5.37;;
16890;SDS011;8562;52.246;20.966;2023-04-16T05:13:33;8.77;;;5.33;;
16890;SDS011;8562;52.246;20.966;2023-04-16T05:15:58;8.47;;;5.00;;
16890;SDS011;8562;52.246;20.966;2023-04-16T05:18:24;12.87;;;5.37;;
16890;SDS011;8562;52.246;20.966;2023-04-16T05:20:49;8.70;;;5.20;;
16890;SDS011;8562;52.246;20.966;2023-04-16T05:23:14;8.33;;;4.27;;
16890;SDS011;8562;52.246;20.966;2023-04-16T05:25:40;7.43;;;5.70;;
16890;SDS011;8562;52.246;20.966;2023-04-16T05:28:05;7.70;;;5.77;;
16890;SDS011;8562;52.246;20.966;2023-04-16T05:30:30;6.50;;;5.07;;
16890;SDS011;8562;52.246;20.966;2023-04-16T05:32:55;7.87;;;5.07;;
16890;SDS011;8562;52.246;20.966;2023-04-16T05:35:21;8.60;;;5.30;;
16890;SDS011;8562;52.246;20.966;2023-04-16T05:37:46;6.60;;;5.07;;
16890;SDS011;8562;52.246;20.966;2023-04-16T05:40:12;4.70;;;4.30;;
16890;SDS011;8562;52.246;20.966;2023-04-16T05:42:38;7.47;;;5.17;;
16890;SDS011;8562;52.246;20.966;2023-04-16T05:45:03;7.20;;;5.13;;
16890;SDS011;8562;52.246;20.966;2023-04-16T05:47:29;7.63;;;5.07;;
16890;SDS011;8562;52.246;20.966;2023-04-16T05:49:54;9.67;;;5.10;;
16890;SDS011;8562;52.246;20.966;2023-04-16T05:52:19;9.03;;;5.30;;
16890;SDS011;8562;52.246;20.966;2023-04-16T05:54:45;8.13;;;5.20;;
16890;SDS011;8562;52.246;20.966;2023-04-16T05:57:10;8.50;;;5.07;;
16890;SDS011;8562;52.246;20.966;2023-04-16T05:59:36;5.00;;;4.07;;
16890;SDS011;8562;52.246;20.966;2023-04-16T06:02:01;7.63;;;5.50;;
16890;SDS011;8562;52.246;20.966;2023-04-16T06:04:26;8.33;;;5.53;;
16890;SDS011;8562;52.246;20.966;2023-04-16T06:06:51;6.00;;;5.10;;
16890;SDS011;8562;52.246;20.966;2023-04-16T06:09:17;8.50;;;5.27;;
16890;SDS011;8562;52.246;20.966;2023-04-16T06:11:43;6.30;;;4.30;;
16890;SDS011;8562;52.246;20.966;2023-04-16T06:14:08;6.33;;;5.13;;
16890;SDS011;8562;52.246;20.966;2023-04-16T06:16:33;9.33;;;5.77;;
16890;SDS011;8562;52.246;20.966;2023-04-16T06:18:59;7.57;;;5.77;;
16890;SDS011;8562;52.246;20.966;2023-04-16T06:21:24;7.33;;;5.40;;
16890;SDS011;8562;52.246;20.966;2023-04-16T06:23:50;6.43;;;5.17;;
16890;SDS011;8562;52.246;20.966;2023-04-16T06:26:16;11.23;;;5.17;;
16890;SDS011;8562;52.246;20.966;2023-04-16T06:28:41;6.67;;;4.63;;
16890;SDS011;8562;52.246;20.966;2023-04-16T06:31:06;8.07;;;5.53;;
16890;SDS011;8562;52.246;20.966;2023-04-16T06:33:31;9.27;;;4.43;;
16890;SDS011;8562;52.246;20.966;2023-04-16T06:35:57;7.43;;;4.93;;
16890;SDS011;8562;52.246;20.966;2023-04-16T06:38:22;6.90;;;5.10;;
16890;SDS011;8562;52.246;20.966;2023-04-16T06:40:47;7.63;;;4.70;;
16890;SDS011;8562;52.246;20.966;2023-04-16T06:43:13;6.67;;;5.27;;
16890;SDS011;8562;52.246;20.966;2023-04-16T06:45:39;6.27;;;4.43;;
16890;SDS011;8562;52.246;20.966;2023-04-16T06:48:05;6.23;;;5.63;;
16890;SDS011;8562;52.246;20.966;2023-04-16T06:50:30;6.53;;;5.37;;
16890;SDS011;8562;52.246;20.966;2023-04-16T06:52:55;5.87;;;4.67;;
16890;SDS011;8562;52.246;20.966;2023-04-16T06:55:21;6.77;;;5.33;;
16890;SDS011;8562;52.246;20.966;2023-04-16T06:57:46;5.27;;;4.57;;
16890;SDS011;8562;52.246;20.966;2023-04-16T07:00:11;7.57;;;4.50;;
16890;SDS011;8562;52.246;20.966;2023-04-16T07:02:37;5.67;;;4.50;;
16890;SDS011;8562;52.246;20.966;2023-04-16T07:05:02;5.27;;;4.20;;
16890;SDS011;8562;52.246;20.966;2023-04-16T07:07:28;5.77;;;4.60;;
16890;SDS011;8562;52.246;20.966;2023-04-16T07:09:53;7.03;;;4.37;;
16890;SDS011;8562;52.246;20.966;2023-04-16T07:12:18;6.97;;;5.50;;
16890;SDS011;8562;52.246;20.966;2023-04-16T07:14:44;5.73;;;4.47;;
16890;SDS011;8562;52.246;20.966;2023-04-16T07:17:09;6.10;;;4.70;;
16890;SDS011;8562;52.246;20.966;2023-04-16T07:19:35;6.40;;;5.27;;
16890;SDS011;8562;52.246;20.966;2023-04-16T07:22:01;7.00;;;5.33;;
16890;SDS011;8562;52.246;20.966;2023-04-16T07:24:26;8.93;;;5.73;;
16890;SDS011;8562;52.246;20.966;2023-04-16T07:26:51;5.23;;;4.73;;
16890;SDS011;8562;52.246;20.966;2023-04-16T07:29:17;7.90;;;5.03;;
16890;SDS011;8562;52.246;20.966;2023-04-16T07:31:42;4.70;;;4.23;;
16890;SDS011;8562;52.246;20.966;2023-04-16T07:34:07;7.20;;;5.13;;
16890;SDS011;8562;52.246;20.966;2023-04-16T07:36:32;6.17;;;4.90;;
16890;SDS011;8562;52.246;20.966;2023-04-16T07:38:58;6.77;;;5.20;;
16890;SDS011;8562;52.246;20.966;2023-04-16T07:41:23;5.67;;;4.90;;
16890;SDS011;8562;52.246;20.966;2023-04-16T07:43:48;5.63;;;4.90;;
16890;SDS011;8562;52.246;20.966;2023-04-16T07:46:14;6.80;;;5.57;;
16890;SDS011;8562;52.246;20.966;2023-04-16T07:48:39;6.37;;;5.50;;
16890;SDS011;8562;52.246;20.966;2023-04-16T07:51:04;6.27;;;5.20;;
16890;SDS011;8562;52.246;20.966;2023-04-16T07:53:30;6.33;;;5.03;;
16890;SDS011;8562;52.246;20.966;2023-04-16T07:55:55;7.57;;;4.87;;
16890;SDS011;8562;52.246;20.966;2023-04-16T07:58:20;5.80;;;4.37;;
16890;SDS011;8562;52.246;20.966;2023-04-16T08:00:46;8.23;;;4.40;;
16890;SDS011;8562;52.246;20.966;2023-04-16T08:03:11;6.23;;;4.60;;
16890;SDS011;8562;52.246;20.966;2023-04-16T08:05:36;5.93;;;5.17;;
16890;SDS011;8562;52.246;20.966;2023-04-16T08:08:01;8.67;;;5.03;;
16890;SDS011;8562;52.246;20.966;2023-04-16T08:10:27;5.43;;;4.07;;
16890;SDS011;8562;52.246;20.966;2023-04-16T08:12:52;6.17;;;5.20;;
16890;SDS011;8562;52.246;20.966;2023-04-16T08:15:17;5.60;;;4.97;;
16890;SDS011;8562;52.246;20.966;2023-04-16T08:17:43;8.63;;;5.47;;
16890;SDS011;8562;52.246;20.966;2023-04-16T08:20:08;7.63;;;4.80;;
16890;SDS011;8562;52.246;20.966;2023-04-16T08:22:34;6.03;;;5.10;;
16890;SDS011;8562;52.246;20.966;2023-04-16T08:24:59;7.43;;;6.07;;
16890;SDS011;8562;52.246;20.966;2023-04-16T08:27:25;9.07;;;6.60;;
16890;SDS011;8562;52.246;20.966;2023-04-16T08:29:50;8.60;;;5.93;;
16890;SDS011;8562;52.246;20.966;2023-04-16T08:32:15;7.87;;;6.10;;
16890;SDS011;8562;52.246;20.966;2023-04-16T08:34:41;5.87;;;5.17;;
16890;SDS011;8562;52.246;20.966;2023-04-16T08:37:06;7.60;;;4.93;;
16890;SDS011;8562;52.246;20.966;2023-04-16T08:39:31;6.23;;;5.63;;
16890;SDS011;8562;52.246;20.966;2023-04-16T08:41:57;7.47;;;5.67;;
16890;SDS011;8562;52.246;20.966;2023-04-16T08:44:26;6.20;;;4.93;;
16890;SDS011;8562;52.246;20.966;2023-04-16T08:46:53;7.73;;;5.60;;
16890;SDS011;8562;52.246;20.966;2023-04-16T08:49:22;6.77;;;4.53;;
16890;SDS011;8562;52.246;20.966;2023-04-16T08:51:51;5.97;;;5.30;;
16890;SDS011;8562;52.246;20.966;2023-04-16T08:54:20;8.47;;;5.03;;
16890;SDS011;8562;52.246;20.966;2023-04-16T08:56:49;7.60;;;5.20;;
16890;SDS011;8562;52.246;20.966;2023-04-16T08:59:15;7.23;;;5.03;;
16890;SDS011;8562;52.246;20.966;2023-04-16T09:01:40;6.10;;;4.97;;
16890;SDS011;8562;52.246;20.966;2023-04-16T09:04:06;5.57;;;5.07;;
16890;SDS011;8562;52.246;20.966;2023-04-16T09:06:31;7.63;;;6.13;;
16890;SDS011;8562;52.246;20.966;2023-04-16T09:08:57;6.93;;;5.13;;
16890;SDS011;8562;52.246;20.966;2023-04-16T09:11:23;5.70;;;4.80;;
16890;SDS011;8562;52.246;20.966;2023-04-16T09:13:49;5.73;;;4.60;;
16890;SDS011;8562;52.246;20.966;2023-04-16T09:16:15;6.13;;;5.33;;
16890;SDS011;8562;52.246;20.966;2023-04-16T09:18:41;5.73;;;5.00;;
16890;SDS011;8562;52.246;20.966;2023-04-16T09:21:08;7.43;;;4.53;;
16890;SDS011;8562;52.246;20.966;2023-04-16T09:23:33;7.33;;;5.10;;
16890;SDS011;8562;52.246;20.966;2023-04-16T09:25:59;6.20;;;4.70;;
16890;SDS011;8562;52.246;20.966;2023-04-16T09:28:40;6.40;;;4.47;;
16890;SDS011;8562;52.246;20.966;2023-04-16T09:31:06;6.33;;;4.60;;
16890;SDS011;8562;52.246;20.966;2023-04-16T09:33:32;5.67;;;4.60;;
16890;SDS011;8562;52.246;20.966;2023-04-16T09:35:57;4.50;;;4.00;;
16890;SDS011;8562;52.246;20.966;2023-04-16T09:38:22;4.80;;;4.23;;
16890;SDS011;8562;52.246;20.966;2023-04-16T09:41:04;4.70;;;4.20;;
16890;SDS011;8562;52.246;20.966;2023-04-16T09:43:30;5.93;;;4.63;;
16890;SDS011;8562;52.246;20.966;2023-04-16T09:45:55;5.70;;;4.43;;
16890;SDS011;8562;52.246;20.966;2023-04-16T09:48:28;9.07;;;4.63;;
16890;SDS011;8562;52.246;20.966;2023-04-16T09:50:53;5.43;;;4.00;;
16890;SDS011;8562;52.246;20.966;2023-04-16T09:53:23;5.57;;;3.80;;
16890;SDS011;8562;52.246;20.966;2023-04-16T09:55:48;5.27;;;4.50;;
16890;SDS011;8562;52.246;20.966;2023-04-16T09:58:17;5.03;;;4.37;;
16890;SDS011;8562;52.246;20.966;2023-04-16T10:00:42;4.77;;;4.33;;
16890;SDS011;8562;52.246;20.966;2023-04-16T10:03:08;4.57;;;3.70;;
16890;SDS011;8562;52.246;20.966;2023-04-16T10:05:33;4.73;;;3.57;;
16890;SDS011;8562;52.246;20.966;2023-04-16T10:07:59;6.57;;;4.13;;
16890;SDS011;8562;52.246;20.966;2023-04-16T10:10:24;4.57;;;4.17;;
16890;SDS011;8562;52.246;20.966;2023-04-16T10:12:50;4.93;;;4.07;;
16890;SDS011;8562;52.246;20.966;2023-04-16T10:15:15;4.97;;;4.23;;
16890;SDS011;8562;52.246;20.966;2023-04-16T10:17:41;5.97;;;4.33;;
16890;SDS011;8562;52.246;20.966;2023-04-16T10:20:07;6.00;;;4.30;;
16890;SDS011;8562;52.246;20.966;2023-04-16T10:22:32;7.47;;;4.87;;
16890;SDS011;8562;52.246;20.966;2023-04-16T10:24:57;4.97;;;4.57;;
16890;SDS011;8562;52.246;20.966;2023-04-16T10:27:23;4.60;;;3.97;;
16890;SDS011;8562;52.246;20.966;2023-04-16T10:29:49;5.30;;;4.37;;
16890;SDS011;8562;52.246;20.966;2023-04-16T10:32:15;5.73;;;5.00;;
16890;SDS011;8562;52.246;20.966;2023-04-16T10:34:41;6.07;;;5.13;;
16890;SDS011;8562;52.246;20.966;2023-04-16T10:37:07;5.27;;;4.37;;
16890;SDS011;8562;52.246;20.966;2023-04-16T10:39:34;4.07;;;3.77;;
16890;SDS011;8562;52.246;20.966;2023-04-16T10:42:11;4.50;;;4.10;;
16890;SDS011;8562;52.246;20.966;2023-04-16T10:44:36;5.73;;;4.30;;
16890;SDS011;8562;52.246;20.966;2023-04-16T10:47:01;4.50;;;3.87;;
16890;SDS011;8562;52.246;20.966;2023-04-16T10:49:27;7.40;;;4.50;;
16890;SDS011;8562;52.246;20.966;2023-04-16T10:51:57;6.53;;;4.90;;
16890;SDS011;8562;52.246;20.966;2023-04-16T10:56:48;6.57;;;4.63;;
16890;SDS011;8562;52.246;20.966;2023-04-16T10:59:16;6.77;;;5.03;;
16890;SDS011;8562;52.246;20.966;2023-04-16T11:01:42;6.57;;;5.00;;
16890;SDS011;8562;52.246;20.966;2023-04-16T11:09:44;5.90;;;4.63;;
16890;SDS011;8562;52.246;20.966;2023-04-16T11:12:23;5.77;;;4.10;;
16890;SDS011;8562;52.246;20.966;2023-04-16T11:14:52;6.27;;;4.73;;
16890;SDS011;8562;52.246;20.966;2023-04-16T11:17:18;6.03;;;4.30;;
16890;SDS011;8562;52.246;20.966;2023-04-16T11:19:44;5.70;;;4.43;;
16890;SDS011;8562;52.246;20.966;2023-04-16T11:22:13;4.87;;;4.37;;
16890;SDS011;8562;52.246;20.966;2023-04-16T11:24:41;5.83;;;3.83;;
16890;SDS011;8562;52.246;20.966;2023-04-16T11:27:06;6.70;;;4.80;;
16890;SDS011;8562;52.246;20.966;2023-04-16T11:29:32;6.13;;;4.57;;
16890;SDS011;8562;52.246;20.966;2023-04-16T11:31:57;4.77;;;4.13;;
16890;SDS011;8562;52.246;20.966;2023-04-16T11:34:22;5.30;;;4.50;;
16890;SDS011;8562;52.246;20.966;2023-04-16T11:36:48;4.90;;;4.40;;
16890;SDS011;8562;52.246;20.966;2023-04-16T11:39:14;5.10;;;4.60;;
16890;SDS011;8562;52.246;20.966;2023-04-16T11:41:43;7.37;;;4.47;;
16890;SDS011;8562;52.246;20.966;2023-04-16T11:44:18;5.90;;;4.50;;
16890;SDS011;8562;52.246;20.966;2023-04-16T11:46:43;6.47;;;4.93;;
16890;SDS011;8562;52.246;20.966;2023-04-16T11:49:09;4.83;;;3.90;;
16890;SDS011;8562;52.246;20.966;2023-04-16T11:51:40;4.83;;;4.33;;
16890;SDS011;8562;52.246;20.966;2023-04-16T11:54:06;5.23;;;4.30;;
16890;SDS011;8562;52.246;20.966;2023-04-16T11:56:35;4.40;;;3.87;;
16890;SDS011;8562;52.246;20.966;2023-04-16T11:59:11;4.57;;;4.17;;
16890;SDS011;8562;52.246;20.966;2023-04-16T12:01:37;6.70;;;4.70;;
16890;SDS011;8562;52.246;20.966;2023-04-16T12:04:03;6.10;;;4.60;;
16890;SDS011;8562;52.246;20.966;2023-04-16T12:06:29;6.27;;;4.70;;
16890;SDS011;8562;52.246;20.966;2023-04-16T12:08:56;5.03;;;4.40;;
16890;SDS011;8562;52.246;20.966;2023-04-16T12:11:36;5.47;;;4.47;;
16890;SDS011;8562;52.246;20.966;2023-04-16T12:14:10;5.97;;;4.97;;
16890;SDS011;8562;52.246;20.966;2023-04-16T12:16:36;5.80;;;4.43;;
16890;SDS011;8562;52.246;20.966;2023-04-16T12:19:02;4.90;;;4.40;;
16890;SDS011;8562;52.246;20.966;2023-04-16T12:21:37;5.87;;;4.77;;
16890;SDS011;8562;52.246;20.966;2023-04-16T12:24:03;5.27;;;4.00;;
16890;SDS011;8562;52.246;20.966;2023-04-16T12:27:14;4.67;;;4.17;;
16890;SDS011;8562;52.246;20.966;2023-04-16T12:31:40;4.73;;;4.07;;
16890;SDS011;8562;52.246;20.966;2023-04-16T12:34:05;5.40;;;4.47;;
16890;SDS011;8562;52.246;20.966;2023-04-16T12:36:31;4.77;;;4.07;;
16890;SDS011;8562;52.246;20.966;2023-04-16T12:38:57;5.37;;;3.83;;
16890;SDS011;8562;52.246;20.966;2023-04-16T12:41:22;5.63;;;4.17;;
16890;SDS011;8562;52.246;20.966;2023-04-16T12:43:47;4.50;;;4.10;;
16890;SDS011;8562;52.246;20.966;2023-04-16T12:46:13;6.27;;;4.50;;
16890;SDS011;8562;52.246;20.966;2023-04-16T12:48:38;4.77;;;4.27;;
16890;SDS011;8562;52.246;20.966;2023-04-16T12:51:03;5.87;;;4.73;;
16890;SDS011;8562;52.246;20.966;2023-04-16T12:53:28;5.27;;;4.77;;
16890;SDS011;8562;52.246;20.966;2023-04-16T12:55:54;6.03;;;4.70;;
16890;SDS011;8562;52.246;20.966;2023-04-16T12:58:19;4.90;;;4.40;;
16890;SDS011;8562;52.246;20.966;2023-04-16T13:00:44;5.57;;;4.60;;
16890;SDS011;8562;52.246;20.966;2023-04-16T13:03:10;7.03;;;4.87;;
16890;SDS011;8562;52.246;20.966;2023-04-16T13:05:35;7.43;;;4.33;;
16890;SDS011;8562;52.246;20.966;2023-04-16T13:08:01;5.87;;;4.87;;
16890;SDS011;8562;52.246;20.966;2023-04-16T13:10:26;4.30;;;3.90;;
16890;SDS011;8562;52.246;20.966;2023-04-16T13:12:52;4.00;;;3.60;;
16890;SDS011;8562;52.246;20.966;2023-04-16T13:15:17;5.27;;;4.13;;
16890;SDS011;8562;52.246;20.966;2023-04-16T13:17:42;4.40;;;4.00;;
16890;SDS011;8562;52.246;20.966;2023-04-16T13:20:07;6.83;;;4.97;;
16890;SDS011;8562;52.246;20.966;2023-04-16T13:22:33;5.37;;;4.87;;
16890;SDS011;8562;52.246;20.966;2023-04-16T13:24:58;6.40;;;4.80;;
16890;SDS011;8562;52.246;20.966;2023-04-16T13:27:24;5.40;;;4.53;;
16890;SDS011;8562;52.246;20.966;2023-04-16T13:29:49;6.07;;;4.93;;
16890;SDS011;8562;52.246;20.966;2023-04-16T13:32:14;6.13;;;5.30;;
16890;SDS011;8562;52.246;20.966;2023-04-16T13:34:40;6.13;;;4.70;;
16890;SDS011;8562;52.246;20.966;2023-04-16T13:37:05;5.77;;;4.77;;
16890;SDS011;8562;52.246;20.966;2023-04-16T13:39:32;6.83;;;4.90;;
16890;SDS011;8562;52.246;20.966;2023-04-16T13:41:57;7.10;;;4.77;;
16890;SDS011;8562;52.246;20.966;2023-04-16T13:44:22;6.50;;;4.43;;
16890;SDS011;8562;52.246;20.966;2023-04-16T13:46:48;5.10;;;4.30;;
16890;SDS011;8562;52.246;20.966;2023-04-16T13:49:13;4.63;;;4.23;;
16890;SDS011;8562;52.246;20.966;2023-04-16T13:51:41;4.63;;;3.97;;
16890;SDS011;8562;52.246;20.966;2023-04-16T13:54:06;6.27;;;4.73;;
16890;SDS011;8562;52.246;20.966;2023-04-16T13:56:32;7.50;;;4.50;;
16890;SDS011;8562;52.246;20.966;2023-04-16T13:58:57;4.93;;;4.03;;
16890;SDS011;8562;52.246;20.966;2023-04-16T14:01:22;4.83;;;4.10;;
16890;SDS011;8562;52.246;20.966;2023-04-16T14:03:48;5.20;;;4.33;;
16890;SDS011;8562;52.246;20.966;2023-04-16T14:06:13;4.53;;;4.13;;
16890;SDS011;8562;52.246;20.966;2023-04-16T14:08:39;5.47;;;4.97;;
16890;SDS011;8562;52.246;20.966;2023-04-16T14:11:04;4.97;;;4.47;;
16890;SDS011;8562;52.246;20.966;2023-04-16T14:13:30;5.77;;;4.40;;
16890;SDS011;8562;52.246;20.966;2023-04-16T14:15:55;5.00;;;4.00;;
16890;SDS011;8562;52.246;20.966;2023-04-16T14:18:21;5.53;;;4.47;;
16890;SDS011;8562;52.246;20.966;2023-04-16T14:20:46;5.03;;;4.43;;
16890;SDS011;8562;52.246;20.966;2023-04-16T14:23:11;4.23;;;3.73;;
16890;SDS011;8562;52.246;20.966;2023-04-16T14:25:37;4.17;;;3.87;;
16890;SDS011;8562;52.246;20.966;2023-04-16T14:28:02;4.60;;;3.77;;
16890;SDS011;8562;52.246;20.966;2023-04-16T14:30:27;5.10;;;4.40;;
16890;SDS011;8562;52.246;20.966;2023-04-16T14:32:53;4.80;;;4.17;;
16890;SDS011;8562;52.246;20.966;2023-04-16T14:35:18;4.60;;;4.17;;
16890;SDS011;8562;52.246;20.966;2023-04-16T14:37:43;6.27;;;3.73;;
16890;SDS011;8562;52.246;20.966;2023-04-16T14:40:09;5.17;;;4.13;;
16890;SDS011;8562;52.246;20.966;2023-04-16T14:42:36;4.70;;;4.30;;
16890;SDS011;8562;52.246;20.966;2023-04-16T14:45:02;5.83;;;4.23;;
16890;SDS011;8562;52.246;20.966;2023-04-16T14:47:30;5.40;;;4.53;;
16890;SDS011;8562;52.246;20.966;2023-04-16T14:49:55;5.07;;;4.57;;
16890;SDS011;8562;52.246;20.966;2023-04-16T14:52:21;5.13;;;4.23;;